createdAt,value
2017-07-24T00:00:12.524Z,1014.3
2017-07-24T00:01:11.994Z,1014.3
2017-07-24T00:02:11.485Z,1014.3
2017-07-24T00:02:42.006Z,1014.3
2017-07-24T00:04:09.777Z,1014.3
2017-07-24T00:05:08.978Z,1014.2
2017-07-24T00:06:08.201Z,1014.3
2017-07-24T00:07:07.895Z,1014.2
2017-07-24T00:08:07.115Z,1014.3
2017-07-24T00:09:06.320Z,1014.2
2017-07-24T00:10:05.542Z,1014.3
2017-07-24T00:11:04.750Z,1014.3
2017-07-24T00:12:03.941Z,1014.3
2017-07-24T00:13:03.635Z,1014.2
2017-07-24T00:14:02.836Z,1014.2
2017-07-24T00:15:02.031Z,1014.3
2017-07-24T00:16:01.118Z,1014.2
2017-07-24T00:17:00.325Z,1014.2
2017-07-24T00:17:59.922Z,1014.2
2017-07-24T00:18:58.905Z,1014.2
2017-07-24T00:19:58.492Z,1014.2
2017-07-24T00:20:57.698Z,1014.2
2017-07-24T00:21:57.171Z,1014.2
2017-07-24T00:22:56.267Z,1014.2
2017-07-24T00:23:55.466Z,1014.2
2017-07-24T00:24:25.990Z,1014.2
2017-07-24T00:24:56.381Z,1014.2
2017-07-24T00:25:54.074Z,1014.1
2017-07-24T00:26:53.160Z,1014.2
2017-07-24T00:27:52.779Z,1014.1
2017-07-24T00:28:51.864Z,1014.1
2017-07-24T00:29:51.078Z,1014.1
2017-07-24T00:30:50.277Z,1014.1
2017-07-24T00:31:49.867Z,1014
2017-07-24T00:32:49.080Z,1014.1
2017-07-24T00:33:48.281Z,1014
2017-07-24T00:34:47.364Z,1014
2017-07-24T00:35:47.071Z,1014
2017-07-24T00:36:46.295Z,1014
2017-07-24T00:37:45.370Z,1014
2017-07-24T00:38:44.568Z,1014
2017-07-24T00:39:43.771Z,1014
2017-07-24T00:40:43.110Z,1014
2017-07-24T00:41:42.701Z,1014
2017-07-24T00:42:13.205Z,1014
2017-07-24T00:42:43.479Z,1014
2017-07-24T00:43:13.984Z,1014
2017-07-24T00:43:44.250Z,1014
2017-07-24T00:44:14.529Z,1014
2017-07-24T00:45:39.396Z,1013.9
2017-07-24T00:46:38.873Z,1013.9
2017-07-24T00:47:38.076Z,1013.9
2017-07-24T00:48:37.288Z,1013.9
2017-07-24T00:49:36.480Z,1013.9
2017-07-24T00:50:35.932Z,1013.9
2017-07-24T00:51:35.128Z,1013.9
2017-07-24T00:52:34.326Z,1013.9
2017-07-24T00:53:33.917Z,1013.9
2017-07-24T00:54:33.117Z,1013.9
2017-07-24T00:55:03.643Z,1013.9
2017-07-24T00:55:34.042Z,1013.9
2017-07-24T00:56:04.427Z,1013.9
2017-07-24T00:57:30.800Z,1013.9
2017-07-24T00:58:30.264Z,1013.9
2017-07-24T00:59:29.344Z,1013.9
2017-07-24T01:00:28.430Z,1013.9
2017-07-24T01:01:28.012Z,1013.9
2017-07-24T01:02:27.109Z,1013.8
2017-07-24T01:03:26.178Z,1013.8
2017-07-24T01:04:25.380Z,1013.8
2017-07-24T01:05:24.855Z,1013.8
2017-07-24T01:06:24.054Z,1013.8
2017-07-24T01:07:23.260Z,1013.7
2017-07-24T01:08:22.469Z,1013.8
2017-07-24T01:09:22.171Z,1013.8
2017-07-24T01:10:21.379Z,1013.8
2017-07-24T01:11:20.465Z,1013.8
2017-07-24T01:12:19.653Z,1013.8
2017-07-24T01:13:18.845Z,1013.8
2017-07-24T01:14:18.037Z,1013.8
2017-07-24T01:15:17.627Z,1013.8
2017-07-24T01:16:16.826Z,1013.8
2017-07-24T01:17:16.025Z,1013.7
2017-07-24T01:18:15.099Z,1013.8
2017-07-24T01:19:14.701Z,1013.7
2017-07-24T01:20:13.894Z,1013.8
2017-07-24T01:21:12.984Z,1013.8
2017-07-24T01:22:12.074Z,1013.8
2017-07-24T01:23:11.662Z,1013.8
2017-07-24T01:24:10.627Z,1013.7
2017-07-24T01:25:09.829Z,1013.7
2017-07-24T01:26:09.532Z,1013.7
2017-07-24T01:27:08.743Z,1013.7
2017-07-24T01:28:07.949Z,1013.7
2017-07-24T01:29:07.159Z,1013.7
2017-07-24T01:30:06.368Z,1013.6
2017-07-24T01:31:05.569Z,1013.7
2017-07-24T01:32:04.770Z,1013.6
2017-07-24T01:33:03.974Z,1013.6
2017-07-24T01:34:03.562Z,1013.5
2017-07-24T01:34:34.079Z,1013.5
2017-07-24T01:35:04.581Z,1013.5
2017-07-24T01:35:34.973Z,1013.5
2017-07-24T01:37:01.348Z,1013.6
2017-07-24T01:38:00.464Z,1013.5
2017-07-24T01:38:59.551Z,1013.5
2017-07-24T01:39:59.014Z,1013.5
2017-07-24T01:40:58.213Z,1013.5
2017-07-24T01:41:57.299Z,1013.5
2017-07-24T01:42:56.500Z,1013.5
2017-07-24T01:43:55.711Z,1013.5
2017-07-24T01:44:55.407Z,1013.5
2017-07-24T01:45:54.605Z,1013.5
2017-07-24T01:46:53.796Z,1013.5
2017-07-24T01:47:52.983Z,1013.5
2017-07-24T01:48:52.080Z,1013.4
2017-07-24T01:49:51.663Z,1013.4
2017-07-24T01:50:50.867Z,1013.4
2017-07-24T01:51:50.068Z,1013.3
2017-07-24T01:52:49.255Z,1013.4
2017-07-24T01:53:48.339Z,1013.3
2017-07-24T01:54:47.536Z,1013.3
2017-07-24T01:55:47.246Z,1013.3
2017-07-24T01:56:46.334Z,1013.3
2017-07-24T01:57:45.419Z,1013.2
2017-07-24T01:58:44.625Z,1013.2
2017-07-24T01:59:43.824Z,1013.2
2017-07-24T02:00:43.028Z,1013.2
2017-07-24T02:01:42.744Z,1013.2
2017-07-24T02:02:41.967Z,1013.3
2017-07-24T02:03:41.161Z,1013.2
2017-07-24T02:04:40.370Z,1013.2
2017-07-24T02:05:39.327Z,1013.2
2017-07-24T02:06:38.546Z,1013.2
2017-07-24T02:07:38.241Z,1013.2
2017-07-24T02:08:37.493Z,1013.1
2017-07-24T02:09:36.580Z,1013.1
2017-07-24T02:10:35.542Z,1013.1
2017-07-24T02:11:35.255Z,1013.1
2017-07-24T02:12:34.455Z,1013.2
2017-07-24T02:13:33.659Z,1013.2
2017-07-24T02:14:32.866Z,1013.2
2017-07-24T02:15:32.062Z,1013.1
2017-07-24T02:16:31.030Z,1013.1
2017-07-24T02:17:30.739Z,1013.1
2017-07-24T02:18:29.939Z,1013.1
2017-07-24T02:20:28.053Z,1013.1
2017-07-24T02:21:27.262Z,1012.9
2017-07-24T02:22:26.837Z,1012.9
2017-07-24T02:23:25.924Z,1012.9
2017-07-24T02:24:25.018Z,1012.9
2017-07-24T02:25:24.598Z,1012.8
2017-07-24T02:26:23.664Z,1012.8
2017-07-24T02:27:23.153Z,1012.8
2017-07-24T02:28:22.361Z,1012.8
2017-07-24T02:29:21.563Z,1012.8
2017-07-24T02:30:20.760Z,1012.8
2017-07-24T02:30:51.271Z,1012.8
2017-07-24T02:31:21.557Z,1012.8
2017-07-24T02:31:52.069Z,1012.8
2017-07-24T02:32:22.576Z,1012.8
2017-07-24T02:33:18.282Z,1012.7
2017-07-24T02:34:17.477Z,1012.7
2017-07-24T02:35:17.204Z,1012.6
2017-07-24T02:36:16.394Z,1012.7
2017-07-24T02:37:15.606Z,1012.6
2017-07-24T02:38:14.805Z,1012.6
2017-07-24T02:39:13.995Z,1012.6
2017-07-24T02:40:12.959Z,1012.6
2017-07-24T02:40:43.603Z,1012.6
2017-07-24T02:41:13.990Z,1012.5
2017-07-24T02:41:44.386Z,1012.5
2017-07-24T02:42:14.785Z,1012.6
2017-07-24T02:42:45.178Z,1012.6
2017-07-24T02:43:15.581Z,1012.5
2017-07-24T02:43:46.102Z,1012.5
2017-07-24T02:45:09.217Z,1012.5
2017-07-24T02:46:08.920Z,1012.6
2017-07-24T02:47:08.131Z,1012.6
2017-07-24T02:48:07.324Z,1012.6
2017-07-24T02:49:06.531Z,1012.6
2017-07-24T02:50:05.722Z,1012.6
2017-07-24T02:51:04.924Z,1012.6
2017-07-24T02:52:04.122Z,1012.5
2017-07-24T02:53:03.194Z,1012.5
2017-07-24T02:54:02.377Z,1012.5
2017-07-24T02:55:02.067Z,1012.5
2017-07-24T02:56:01.264Z,1012.4
2017-07-24T02:57:00.492Z,1012.5
2017-07-24T02:57:59.681Z,1012.4
2017-07-24T02:58:58.778Z,1012.4
2017-07-24T02:59:57.967Z,1012.4
2017-07-24T03:00:28.364Z,1012.4
2017-07-24T03:00:58.764Z,1012.4
2017-07-24T03:01:56.329Z,1012.4
2017-07-24T03:02:55.790Z,1012.4
2017-07-24T03:03:54.875Z,1012.4
2017-07-24T03:04:54.211Z,1012.4
2017-07-24T03:05:53.416Z,1012.4
2017-07-24T03:06:52.998Z,1012.4
2017-07-24T03:07:52.076Z,1012.4
2017-07-24T03:08:51.282Z,1012.4
2017-07-24T03:09:50.466Z,1012.4
2017-07-24T03:10:49.663Z,1012.3
2017-07-24T03:11:48.858Z,1012.3
2017-07-24T03:12:48.060Z,1012.3
2017-07-24T03:14:46.904Z,1012.3
2017-07-24T03:16:44.980Z,1012.3
2017-07-24T03:17:44.558Z,1012.2
2017-07-24T03:18:43.524Z,1012.2
2017-07-24T03:19:42.705Z,1012.3
2017-07-24T03:20:42.164Z,1012.2
2017-07-24T03:21:41.235Z,1012.2
2017-07-24T03:22:11.626Z,1012.2
2017-07-24T03:23:39.763Z,1012.2
2017-07-24T03:24:39.348Z,1012.2
2017-07-24T03:25:38.566Z,1012.3
2017-07-24T03:26:37.771Z,1012.3
2017-07-24T03:27:36.955Z,1012.2
2017-07-24T03:28:36.142Z,1012.2
2017-07-24T03:29:35.343Z,1012.2
2017-07-24T03:30:34.538Z,1012.2
2017-07-24T03:31:33.761Z,1012.2
2017-07-24T03:32:32.992Z,1012.2
2017-07-24T03:33:32.188Z,1012.2
2017-07-24T03:34:31.767Z,1012.2
2017-07-24T03:35:02.275Z,1012.2
2017-07-24T03:35:32.672Z,1012.1
2017-07-24T03:36:30.004Z,1012.1
2017-07-24T03:37:29.208Z,1012.1
2017-07-24T03:38:28.269Z,1012.1
2017-07-24T03:39:27.832Z,1012.1
2017-07-24T03:40:27.011Z,1012.1
2017-07-24T03:41:26.094Z,1012.1
2017-07-24T03:42:25.438Z,1012.1
2017-07-24T03:43:24.654Z,1012
2017-07-24T03:44:23.857Z,1012
2017-07-24T03:45:23.045Z,1012
2017-07-24T03:46:22.634Z,1012
2017-07-24T03:47:21.481Z,1012
2017-07-24T03:48:20.697Z,1012
2017-07-24T03:49:20.273Z,1012
2017-07-24T03:50:19.456Z,1012
2017-07-24T03:51:18.529Z,1012
2017-07-24T03:52:17.615Z,1012.1
2017-07-24T03:53:17.189Z,1012
2017-07-24T03:53:47.469Z,1012
2017-07-24T03:55:15.732Z,1012
2017-07-24T03:56:14.803Z,1012
2017-07-24T03:57:13.885Z,1012
2017-07-24T03:58:13.094Z,1012
2017-07-24T03:59:12.663Z,1011.9
2017-07-24T04:00:11.734Z,1011.9
2017-07-24T04:01:10.921Z,1011.9
2017-07-24T04:02:10.106Z,1011.9
2017-07-24T04:03:09.294Z,1011.9
2017-07-24T04:04:08.878Z,1012
2017-07-24T04:05:07.862Z,1012
2017-07-24T04:06:07.214Z,1012
2017-07-24T04:07:06.675Z,1011.9
2017-07-24T04:09:04.751Z,1012
2017-07-24T04:10:03.936Z,1011.9
2017-07-24T04:11:03.646Z,1011.9
2017-07-24T04:12:02.842Z,1011.9
2017-07-24T04:13:01.921Z,1011.9
2017-07-24T04:14:01.117Z,1011.9
2017-07-24T04:15:00.304Z,1011.9
2017-07-24T04:15:59.760Z,1011.9
2017-07-24T04:16:58.826Z,1011.9
2017-07-24T04:17:58.295Z,1011.8
2017-07-24T04:18:57.483Z,1011.8
2017-07-24T04:19:56.555Z,1011.8
2017-07-24T04:20:56.024Z,1011.8
2017-07-24T04:21:55.118Z,1011.8
2017-07-24T04:22:54.194Z,1011.8
2017-07-24T04:23:53.281Z,1011.7
2017-07-24T04:24:52.981Z,1011.7
2017-07-24T04:25:52.175Z,1011.7
2017-07-24T04:26:51.127Z,1011.7
2017-07-24T04:27:50.341Z,1011.7
2017-07-24T04:28:49.529Z,1011.6
2017-07-24T04:29:20.053Z,1011.6
2017-07-24T04:29:50.580Z,1011.6
2017-07-24T04:30:21.081Z,1011.6
2017-07-24T04:31:47.457Z,1011.7
2017-07-24T04:32:46.647Z,1011.7
2017-07-24T04:33:45.710Z,1011.7
2017-07-24T04:34:45.188Z,1011.6
2017-07-24T04:35:44.264Z,1011.6
2017-07-24T04:36:43.463Z,1011.6
2017-07-24T04:37:43.047Z,1011.6
2017-07-24T04:38:42.258Z,1011.6
2017-07-24T04:39:41.446Z,1011.6
2017-07-24T04:40:40.633Z,1011.6
2017-07-24T04:41:39.830Z,1011.6
2017-07-24T04:42:39.038Z,1011.6
2017-07-24T04:43:38.227Z,1011.5
2017-07-24T04:44:37.322Z,1011.5
2017-07-24T04:45:36.935Z,1011.5
2017-07-24T04:46:36.122Z,1011.5
2017-07-24T04:47:35.303Z,1011.6
2017-07-24T04:48:34.508Z,1011.5
2017-07-24T04:49:05.006Z,1011.5
2017-07-24T04:49:35.531Z,1011.5
2017-07-24T04:50:06.050Z,1011.5
2017-07-24T04:51:32.312Z,1011.5
2017-07-24T04:52:31.508Z,1011.5
2017-07-24T04:53:30.707Z,1011.5
2017-07-24T04:54:29.904Z,1011.6
2017-07-24T04:55:28.987Z,1011.5
2017-07-24T04:56:28.558Z,1011.5
2017-07-24T04:57:27.654Z,1011.5
2017-07-24T04:58:26.860Z,1011.5
2017-07-24T04:58:57.127Z,1011.5
2017-07-24T04:59:27.638Z,1011.5
2017-07-24T04:59:57.912Z,1011.5
2017-07-24T05:00:28.408Z,1011.4
2017-07-24T05:00:58.800Z,1011.4
2017-07-24T05:01:29.316Z,1011.4
2017-07-24T05:01:59.855Z,1011.4
2017-07-24T05:03:23.094Z,1011.4
2017-07-24T05:04:22.283Z,1011.4
2017-07-24T05:05:21.731Z,1011.3
2017-07-24T05:06:20.947Z,1011.4
2017-07-24T05:07:20.046Z,1011.4
2017-07-24T05:08:19.629Z,1011.4
2017-07-24T05:09:18.696Z,1011.3
2017-07-24T05:10:17.896Z,1011.3
2017-07-24T05:11:17.097Z,1011.3
2017-07-24T05:12:16.287Z,1011.3
2017-07-24T05:13:15.503Z,1011.3
2017-07-24T05:14:14.691Z,1011.3
2017-07-24T05:15:14.390Z,1011.2
2017-07-24T05:16:13.228Z,1011.3
2017-07-24T05:17:12.682Z,1011.2
2017-07-24T05:18:11.750Z,1011.2
2017-07-24T05:19:10.938Z,1011.3
2017-07-24T05:20:10.153Z,1011.3
2017-07-24T05:21:09.440Z,1011.3
2017-07-24T05:22:09.134Z,1011.2
2017-07-24T05:24:07.257Z,1011.2
2017-07-24T05:25:06.832Z,1011.2
2017-07-24T05:26:06.024Z,1011.2
2017-07-24T05:27:05.211Z,1011.2
2017-07-24T05:28:04.404Z,1011.2
2017-07-24T05:29:03.655Z,1011.2
2017-07-24T05:30:02.725Z,1011.2
2017-07-24T05:31:02.173Z,1011.1
2017-07-24T05:32:01.376Z,1011.2
2017-07-24T05:33:00.489Z,1011.1
2017-07-24T05:33:59.833Z,1011.1
2017-07-24T05:34:59.287Z,1011.1
2017-07-24T05:35:58.491Z,1011.1
2017-07-24T05:36:57.685Z,1011.1
2017-07-24T05:37:56.767Z,1011
2017-07-24T05:38:55.964Z,1011
2017-07-24T05:39:55.652Z,1011
2017-07-24T05:40:54.854Z,1011.1
2017-07-24T05:41:25.351Z,1011.1
2017-07-24T05:41:55.862Z,1011
2017-07-24T05:42:26.142Z,1011
2017-07-24T05:43:52.403Z,1011.1
2017-07-24T05:44:51.596Z,1011.1
2017-07-24T05:45:50.784Z,1011
2017-07-24T05:46:50.372Z,1011
2017-07-24T05:47:49.458Z,1011
2017-07-24T05:48:48.671Z,1011
2017-07-24T05:49:47.872Z,1010.9
2017-07-24T05:50:47.084Z,1010.9
2017-07-24T05:51:46.645Z,1010.9
2017-07-24T05:52:17.019Z,1010.9
2017-07-24T05:52:47.295Z,1011
2017-07-24T05:53:17.949Z,1011
2017-07-24T05:53:48.219Z,1010.9
2017-07-24T05:54:44.281Z,1010.9
2017-07-24T05:55:43.476Z,1010.9
2017-07-24T05:56:42.671Z,1010.8
2017-07-24T05:57:41.869Z,1010.8
2017-07-24T05:58:41.562Z,1010.8
2017-07-24T06:00:39.643Z,1010.8
2017-07-24T06:01:39.338Z,1010.8
2017-07-24T06:02:38.542Z,1010.8
2017-07-24T06:03:37.599Z,1010.7
2017-07-24T06:04:36.782Z,1010.7
2017-07-24T06:05:35.974Z,1010.7
2017-07-24T06:06:35.557Z,1010.7
2017-07-24T06:07:34.763Z,1010.7
2017-07-24T06:08:33.835Z,1010.7
2017-07-24T06:09:33.420Z,1010.6
2017-07-24T06:10:32.625Z,1010.7
2017-07-24T06:11:31.583Z,1010.6
2017-07-24T06:12:31.282Z,1010.6
2017-07-24T06:13:30.365Z,1010.6
2017-07-24T06:14:29.595Z,1010.6
2017-07-24T06:15:28.661Z,1010.6
2017-07-24T06:16:28.123Z,1010.5
2017-07-24T06:17:27.320Z,1010.5
2017-07-24T06:17:57.826Z,1010.5
2017-07-24T06:19:26.210Z,1010.6
2017-07-24T06:20:25.041Z,1010.6
2017-07-24T06:21:24.509Z,1010.6
2017-07-24T06:23:23.085Z,1010.6
2017-07-24T06:24:22.288Z,1010.5
2017-07-24T06:25:21.473Z,1010.5
2017-07-24T06:26:21.170Z,1010.5
2017-07-24T06:27:20.373Z,1010.5
2017-07-24T06:28:19.564Z,1010.5
2017-07-24T06:29:18.766Z,1010.5
2017-07-24T06:30:17.971Z,1010.5
2017-07-24T06:31:17.557Z,1010.5
2017-07-24T06:32:16.452Z,1010.5
2017-07-24T06:33:16.154Z,1010.5
2017-07-24T06:34:15.360Z,1010.5
2017-07-24T06:35:14.438Z,1010.5
2017-07-24T06:36:13.630Z,1010.5
2017-07-24T06:37:13.322Z,1010.5
2017-07-24T06:37:43.834Z,1010.5
2017-07-24T06:39:11.497Z,1010.5
2017-07-24T06:40:11.216Z,1010.5
2017-07-24T06:41:10.304Z,1010.5
2017-07-24T06:42:09.513Z,1010.5
2017-07-24T06:43:08.589Z,1010.5
2017-07-24T06:44:08.284Z,1010.5
2017-07-24T06:45:07.368Z,1010.5
2017-07-24T06:46:06.555Z,1010.5
2017-07-24T06:47:06.058Z,1010.5
2017-07-24T06:47:36.457Z,1010.5
2017-07-24T06:48:06.867Z,1010.5
2017-07-24T06:48:37.146Z,1010.5
2017-07-24T06:49:07.656Z,1010.5
2017-07-24T06:49:38.043Z,1010.5
2017-07-24T06:50:08.549Z,1010.5
2017-07-24T06:50:39.059Z,1010.5
2017-07-24T06:52:02.286Z,1010.5
2017-07-24T06:53:01.989Z,1010.5
2017-07-24T06:54:01.190Z,1010.5
2017-07-24T06:55:00.382Z,1010.5
2017-07-24T06:55:59.472Z,1010.5
2017-07-24T06:56:59.049Z,1010.5
2017-07-24T06:57:58.238Z,1010.5
2017-07-24T06:58:57.432Z,1010.5
2017-07-24T06:59:27.932Z,1010.5
2017-07-24T06:59:58.442Z,1010.5
2017-07-24T07:00:28.844Z,1010.5
2017-07-24T07:00:59.115Z,1010.5
2017-07-24T07:01:29.622Z,1010.5
2017-07-24T07:02:54.889Z,1010.5
2017-07-24T07:03:54.106Z,1010.5
2017-07-24T07:04:53.294Z,1010.5
2017-07-24T07:05:52.752Z,1010.5
2017-07-24T07:06:51.832Z,1010.5
2017-07-24T07:07:51.411Z,1010.5
2017-07-24T07:08:50.491Z,1010.5
2017-07-24T07:09:50.205Z,1010.5
2017-07-24T07:10:49.413Z,1010.5
2017-07-24T07:11:48.502Z,1010.5
2017-07-24T07:12:18.909Z,1010.5
2017-07-24T07:12:49.190Z,1010.5
2017-07-24T07:13:47.270Z,1010.5
2017-07-24T07:14:46.345Z,1010.5
2017-07-24T07:15:46.033Z,1010.5
2017-07-24T07:16:45.114Z,1010.5
2017-07-24T07:17:44.305Z,1010.5
2017-07-24T07:18:14.826Z,1010.5
2017-07-24T07:18:45.330Z,1010.5
2017-07-24T07:19:15.834Z,1010.5
2017-07-24T07:19:46.103Z,1010.5
2017-07-24T07:20:16.479Z,1010.5
2017-07-24T07:20:46.979Z,1010.5
2017-07-24T07:21:41.633Z,1010.5
2017-07-24T07:22:40.818Z,1010.5
2017-07-24T07:23:40.394Z,1010.5
2017-07-24T07:24:39.472Z,1010.5
2017-07-24T07:25:39.051Z,1010.5
2017-07-24T07:26:38.517Z,1010.5
2017-07-24T07:27:37.713Z,1010.5
2017-07-24T07:28:36.785Z,1010.5
2017-07-24T07:29:07.285Z,1010.5
2017-07-24T07:29:37.793Z,1010.5
2017-07-24T07:30:08.309Z,1010.5
2017-07-24T07:30:38.694Z,1010.5
2017-07-24T07:31:09.199Z,1010.5
2017-07-24T07:31:39.732Z,1010.5
2017-07-24T07:32:10.249Z,1010.5
2017-07-24T07:33:33.611Z,1010.5
2017-07-24T07:34:33.085Z,1010.5
2017-07-24T07:35:32.172Z,1010.5
2017-07-24T07:36:31.637Z,1010.5
2017-07-24T07:37:31.095Z,1010.5
2017-07-24T07:38:30.178Z,1010.5
2017-07-24T07:39:29.766Z,1010.5
2017-07-24T07:40:00.038Z,1010.5
2017-07-24T07:40:30.430Z,1010.5
2017-07-24T07:41:00.932Z,1010.5
2017-07-24T07:41:31.431Z,1010.5
2017-07-24T07:42:01.968Z,1010.5
2017-07-24T07:43:26.978Z,1010.5
2017-07-24T07:44:26.167Z,1010.5
2017-07-24T07:45:25.378Z,1010.5
2017-07-24T07:46:25.080Z,1010.5
2017-07-24T07:47:24.270Z,1010.5
2017-07-24T07:48:23.459Z,1010.5
2017-07-24T07:49:23.154Z,1010.5
2017-07-24T07:50:22.342Z,1010.5
2017-07-24T07:51:21.691Z,1010.5
2017-07-24T07:52:20.893Z,1010.5
2017-07-24T07:53:20.475Z,1010.5
2017-07-24T07:54:19.692Z,1010.5
2017-07-24T07:55:18.779Z,1010.5
2017-07-24T07:56:18.487Z,1010.5
2017-07-24T07:57:17.563Z,1010.5
2017-07-24T07:58:17.148Z,1010.5
2017-07-24T07:59:16.108Z,1010.5
2017-07-24T08:00:15.704Z,1010.5
2017-07-24T08:01:14.774Z,1010.5
2017-07-24T08:02:14.460Z,1010.5
2017-07-24T08:03:13.533Z,1010.5
2017-07-24T08:04:13.238Z,1010.5
2017-07-24T08:05:12.440Z,1010.5
2017-07-24T08:06:11.900Z,1010.5
2017-07-24T08:07:10.854Z,1010.5
2017-07-24T08:08:10.332Z,1010.5
2017-07-24T08:09:09.515Z,1010.5
2017-07-24T08:10:09.121Z,1010.5
2017-07-24T08:11:08.322Z,1010.5
2017-07-24T08:12:07.898Z,1010.5
2017-07-24T08:12:38.291Z,1010.5
2017-07-24T08:13:08.599Z,1010.5
2017-07-24T08:14:06.679Z,1010.5
2017-07-24T08:15:05.759Z,1010.5
2017-07-24T08:16:04.947Z,1010.5
2017-07-24T08:17:04.650Z,1010.5
2017-07-24T08:18:03.842Z,1010.5
2017-07-24T08:19:03.039Z,1010.5
2017-07-24T08:20:02.629Z,1010.5
2017-07-24T08:21:01.709Z,1010.5
2017-07-24T08:22:01.402Z,1010.5
2017-07-24T08:23:00.593Z,1010.5
2017-07-24T08:24:00.196Z,1010.5
2017-07-24T08:24:59.265Z,1010.5
2017-07-24T08:25:58.853Z,1010.5
2017-07-24T08:26:58.047Z,1010.5
2017-07-24T08:27:28.312Z,1010.5
2017-07-24T08:27:58.697Z,1010.5
2017-07-24T08:28:29.213Z,1010.5
2017-07-24T08:29:55.962Z,1010.5
2017-07-24T08:30:55.650Z,1010.5
2017-07-24T08:31:54.861Z,1010.5
2017-07-24T08:32:54.060Z,1010.5
2017-07-24T08:33:53.763Z,1010.5
2017-07-24T08:34:52.966Z,1010.5
2017-07-24T08:35:52.541Z,1010.5
2017-07-24T08:36:51.734Z,1010.5
2017-07-24T08:37:51.312Z,1010.5
2017-07-24T08:38:21.832Z,1010.5
2017-07-24T08:38:52.096Z,1010.5
2017-07-24T08:39:22.601Z,1010.5
2017-07-24T08:40:49.231Z,1010.5
2017-07-24T08:41:48.431Z,1010.5
2017-07-24T08:42:47.900Z,1010.5
2017-07-24T08:43:47.243Z,1010.5
2017-07-24T08:44:46.722Z,1010.5
2017-07-24T08:45:45.912Z,1010.5
2017-07-24T08:46:45.610Z,1010.5
2017-07-24T08:47:44.838Z,1010.5
2017-07-24T08:48:44.180Z,1010.5
2017-07-24T08:49:43.368Z,1010.5
2017-07-24T08:50:13.868Z,1010.5
2017-07-24T08:50:44.148Z,1010.5
2017-07-24T08:51:14.547Z,1010.5
2017-07-24T08:51:44.933Z,1010.5
2017-07-24T08:52:41.478Z,1010.5
2017-07-24T08:53:41.192Z,1010.5
2017-07-24T08:54:40.388Z,1010.5
2017-07-24T08:55:40.003Z,1010.5
2017-07-24T08:56:39.200Z,1010.5
2017-07-24T08:57:38.401Z,1010.5
2017-07-24T08:58:38.105Z,1010.5
2017-07-24T08:59:37.301Z,1010.5
2017-07-24T09:00:36.505Z,1010.5
2017-07-24T09:01:35.949Z,1010.5
2017-07-24T09:02:35.527Z,1010.5
2017-07-24T09:03:34.718Z,1010.5
2017-07-24T09:04:34.065Z,1010.5
2017-07-24T09:05:33.638Z,1010.5
2017-07-24T09:06:32.829Z,1010.5
2017-07-24T09:07:32.423Z,1010.5
2017-07-24T09:08:02.943Z,1010.5
2017-07-24T09:08:33.337Z,1010.5
2017-07-24T09:09:03.849Z,1010.5
2017-07-24T09:09:34.229Z,1010.5
2017-07-24T09:10:04.606Z,1010.5
2017-07-24T09:11:29.861Z,1010.5
2017-07-24T09:12:28.938Z,1010.5
2017-07-24T09:13:28.401Z,1010.5
2017-07-24T09:14:27.737Z,1010.5
2017-07-24T09:15:27.321Z,1010.5
2017-07-24T09:16:26.510Z,1010.5
2017-07-24T09:17:26.104Z,1010.5
2017-07-24T09:18:25.564Z,1010.5
2017-07-24T09:18:55.863Z,1010.5
2017-07-24T09:19:26.390Z,1010.5
2017-07-24T09:19:56.902Z,1010.5
2017-07-24T09:20:27.176Z,1010.5
2017-07-24T09:20:57.447Z,1010.5
2017-07-24T09:21:27.977Z,1010.5
2017-07-24T09:21:58.500Z,1010.5
2017-07-24T09:22:28.895Z,1010.5
2017-07-24T09:22:59.418Z,1010.5
2017-07-24T09:24:22.029Z,1010.5
2017-07-24T09:25:21.108Z,1010.5
2017-07-24T09:26:20.686Z,1010.5
2017-07-24T09:27:19.753Z,1010.5
2017-07-24T09:28:19.336Z,1010.5
2017-07-24T09:29:18.553Z,1010.5
2017-07-24T09:30:18.252Z,1010.5
2017-07-24T09:31:17.465Z,1010.5
2017-07-24T09:31:47.735Z,1010.5
2017-07-24T09:32:18.242Z,1010.5
2017-07-24T09:32:48.642Z,1010.5
2017-07-24T09:33:19.132Z,1010.5
2017-07-24T09:34:15.807Z,1010.5
2017-07-24T09:35:15.027Z,1010.5
2017-07-24T09:36:14.622Z,1010.5
2017-07-24T09:37:13.716Z,1010.5
2017-07-24T09:39:12.566Z,1010.5
2017-07-24T09:40:11.904Z,1010.5
2017-07-24T09:41:11.100Z,1010.5
2017-07-24T09:42:10.683Z,1010.5
2017-07-24T09:43:10.251Z,1010.5
2017-07-24T09:44:09.330Z,1010.5
2017-07-24T09:45:08.904Z,1010.5
2017-07-24T09:46:08.481Z,1010.5
2017-07-24T09:47:07.559Z,1010.5
2017-07-24T09:48:07.255Z,1010.5
2017-07-24T09:49:06.221Z,1010.5
2017-07-24T09:50:05.905Z,1010.5
2017-07-24T09:51:05.490Z,1010.5
2017-07-24T09:51:35.992Z,1010.5
2017-07-24T09:52:06.379Z,1010.5
2017-07-24T09:52:36.772Z,1010.5
2017-07-24T09:54:03.653Z,1010.5
2017-07-24T09:55:02.722Z,1010.5
2017-07-24T09:56:02.079Z,1010.5
2017-07-24T09:57:01.800Z,1010.5
2017-07-24T09:58:01.025Z,1010.5
2017-07-24T09:59:00.614Z,1010.5
2017-07-24T09:59:59.804Z,1010.5
2017-07-24T10:00:59.398Z,1010.5
2017-07-24T10:01:58.362Z,1010.5
2017-07-24T10:02:28.869Z,1010.5
2017-07-24T10:02:59.261Z,1010.5
2017-07-24T10:03:29.760Z,1010.5
2017-07-24T10:04:00.136Z,1010.5
2017-07-24T10:04:56.699Z,1010.5
2017-07-24T10:05:56.396Z,1010.5
2017-07-24T10:06:55.471Z,1010.5
2017-07-24T10:07:55.158Z,1010.5
2017-07-24T10:08:54.358Z,1010.5
2017-07-24T10:09:53.951Z,1010.5
2017-07-24T10:10:53.152Z,1010.5
2017-07-24T10:11:52.726Z,1010.5
2017-07-24T10:12:51.923Z,1010.5
2017-07-24T10:13:51.506Z,1010.5
2017-07-24T10:14:50.701Z,1010.5
2017-07-24T10:15:50.421Z,1010.5
2017-07-24T10:16:49.627Z,1010.5
2017-07-24T10:18:48.200Z,1010.5
2017-07-24T10:19:47.909Z,1010.5
2017-07-24T10:20:47.117Z,1010.5
2017-07-24T10:21:46.866Z,1010.5
2017-07-24T10:22:45.819Z,1010.5
2017-07-24T10:23:45.679Z,1010.5
2017-07-24T10:24:44.875Z,1010.5
2017-07-24T10:25:44.342Z,1010.5
2017-07-24T10:26:43.904Z,1010.5
2017-07-24T10:27:43.118Z,1010.5
2017-07-24T10:28:13.490Z,1010.5
2017-07-24T10:28:43.764Z,1010.5
2017-07-24T10:29:14.283Z,1010.5
2017-07-24T10:30:41.303Z,1010.5
2017-07-24T10:31:40.888Z,1010.5
2017-07-24T10:32:39.970Z,1010.5
2017-07-24T10:33:39.557Z,1010.5
2017-07-24T10:34:39.018Z,1010.5
2017-07-24T10:35:38.485Z,1010.5
2017-07-24T10:36:37.583Z,1010.5
2017-07-24T10:37:37.161Z,1010.5
2017-07-24T10:38:36.869Z,1010.5
2017-07-24T10:39:35.948Z,1010.5
2017-07-24T10:40:35.648Z,1010.5
2017-07-24T10:41:34.835Z,1010.5
2017-07-24T10:42:34.299Z,1010.5
2017-07-24T10:43:33.892Z,1010.5
2017-07-24T10:44:32.965Z,1010.5
2017-07-24T10:45:32.673Z,1010.5
2017-07-24T10:46:31.856Z,1010.5
2017-07-24T10:47:31.445Z,1010.5
2017-07-24T10:48:30.640Z,1010.5
2017-07-24T10:49:01.219Z,1010.5
2017-07-24T10:50:29.760Z,1010.5
2017-07-24T10:52:28.364Z,1010.5
2017-07-24T10:53:27.961Z,1010.5
2017-07-24T10:54:27.165Z,1010.5
2017-07-24T10:55:26.751Z,1010.5
2017-07-24T10:56:26.344Z,1010.5
2017-07-24T10:57:25.443Z,1010.5
2017-07-24T10:58:24.966Z,1010.5
2017-07-24T10:58:55.488Z,1010.5
2017-07-24T10:59:26.136Z,1010.5
2017-07-24T10:59:56.541Z,1010.5
2017-07-24T11:00:26.815Z,1010.5
2017-07-24T11:00:57.189Z,1010.5
2017-07-24T11:01:27.576Z,1010.5
2017-07-24T11:01:57.848Z,1010.5
2017-07-24T11:02:28.355Z,1010.5
2017-07-24T11:02:59.004Z,1010.5
2017-07-24T11:04:21.631Z,1010.5
2017-07-24T11:05:21.209Z,1010.5
2017-07-24T11:06:20.676Z,1010.5
2017-07-24T11:07:20.135Z,1010.5
2017-07-24T11:08:19.331Z,1010.5
2017-07-24T11:09:18.530Z,1010.5
2017-07-24T11:10:18.098Z,1010.5
2017-07-24T11:10:48.614Z,1010.5
2017-07-24T11:11:19.013Z,1010.5
2017-07-24T11:11:49.407Z,1010.5
2017-07-24T11:12:19.807Z,1010.5
2017-07-24T11:12:50.094Z,1010.5
2017-07-24T11:13:20.495Z,1010.5
2017-07-24T11:13:50.882Z,1010.5
2017-07-24T11:15:15.235Z,1010.5
2017-07-24T11:16:14.814Z,1010.5
2017-07-24T11:17:14.401Z,1010.5
2017-07-24T11:18:13.486Z,1010.5
2017-07-24T11:19:12.948Z,1010.5
2017-07-24T11:20:12.519Z,1010.5
2017-07-24T11:21:12.092Z,1010.5
2017-07-24T11:22:11.691Z,1010.5
2017-07-24T11:23:11.028Z,1010.5
2017-07-24T11:24:10.482Z,1010.5
2017-07-24T11:25:09.681Z,1010.5
2017-07-24T11:26:09.379Z,1010.5
2017-07-24T11:27:08.462Z,1010.5
2017-07-24T11:28:08.146Z,1010.5
2017-07-24T11:29:07.481Z,1010.5
2017-07-24T11:30:06.701Z,1010.5
2017-07-24T11:30:37.094Z,1010.5
2017-07-24T11:32:05.990Z,1010.5
2017-07-24T11:33:05.203Z,1010.5
2017-07-24T11:34:04.901Z,1010.5
2017-07-24T11:35:03.978Z,1010.5